createdAt,value
2023-05-23T00:00:12.642Z,1.33
2023-05-23T00:05:41.048Z,1.53
2023-05-23T00:11:09.280Z,0.97
2023-05-23T00:16:41.442Z,1.97
2023-05-23T00:22:11.052Z,0.60
2023-05-23T00:27:39.458Z,1.47
2023-05-23T00:33:07.796Z,1.40
2023-05-23T00:38:36.392Z,1.40
2023-05-23T00:44:05.699Z,0.70
2023-05-23T00:49:34.452Z,1.50
2023-05-23T00:55:02.722Z,1.50
2023-05-23T01:00:31.172Z,1.13
2023-05-23T01:05:59.351Z,1.07
2023-05-23T01:11:48.943Z,1.50
2023-05-23T01:17:29.542Z,1.00
2023-05-23T01:23:23.465Z,1.70
2023-05-23T01:28:56.839Z,0.80
2023-05-23T01:34:25.425Z,1.33
2023-05-23T01:39:53.591Z,1.60
2023-05-23T01:45:23.210Z,1.00
2023-05-23T01:50:51.837Z,2.00
2023-05-23T01:56:21.975Z,0.90
2023-05-23T02:01:50.250Z,0.80
2023-05-23T02:07:23.254Z,1.53
2023-05-23T02:12:51.860Z,1.63
2023-05-23T02:18:20.790Z,2.00
2023-05-23T02:23:51.972Z,2.27
2023-05-23T02:29:20.607Z,1.13
2023-05-23T02:34:51.029Z,0.90
2023-05-23T02:40:19.916Z,1.10
2023-05-23T02:45:48.189Z,0.83
2023-05-23T02:51:16.535Z,3.07
2023-05-23T02:56:46.853Z,3.47
2023-05-23T03:02:15.348Z,0.93
2023-05-23T03:07:44.176Z,1.87
2023-05-23T03:13:12.542Z,2.30
2023-05-23T03:18:42.195Z,3.20
2023-05-23T03:24:10.596Z,2.50
2023-05-23T03:29:38.753Z,1.47
2023-05-23T03:35:07.330Z,1.73
2023-05-23T03:40:35.478Z,2.47
2023-05-23T03:46:03.752Z,1.30
2023-05-23T03:51:32.239Z,1.60
2023-05-23T03:57:01.565Z,2.93
2023-05-23T04:02:29.847Z,1.70
2023-05-23T04:08:01.721Z,1.37
2023-05-23T04:13:31.269Z,1.57
2023-05-23T04:18:59.927Z,1.60
2023-05-23T04:24:28.213Z,1.73
2023-05-23T04:29:58.348Z,2.37
2023-05-23T04:35:29.388Z,2.47
2023-05-23T04:40:58.168Z,2.40
2023-05-23T04:46:46.282Z,2.17
2023-05-23T04:52:19.220Z,2.20
2023-05-23T04:57:47.580Z,0.80
2023-05-23T05:03:16.677Z,2.60
2023-05-23T05:08:47.179Z,1.80
2023-05-23T05:14:16.031Z,2.37
2023-05-23T05:19:48.222Z,1.17
2023-05-23T05:25:16.389Z,3.70
2023-05-23T05:30:46.484Z,3.30
2023-05-23T05:36:15.049Z,1.17
2023-05-23T05:41:44.326Z,1.37
2023-05-23T05:47:13.329Z,1.20
2023-05-23T05:52:42.565Z,2.70
2023-05-23T05:58:11.377Z,1.20
2023-05-23T06:03:55.058Z,3.20
2023-05-23T06:09:23.727Z,1.60
2023-05-23T06:14:51.873Z,1.73
2023-05-23T06:20:20.079Z,1.63
2023-05-23T06:25:49.407Z,2.10
2023-05-23T06:31:17.489Z,2.63
2023-05-23T06:36:47.047Z,2.40
2023-05-23T06:42:16.372Z,2.30
2023-05-23T06:48:04.646Z,3.17
2023-05-23T06:53:34.703Z,3.70
2023-05-23T06:59:02.953Z,2.87
2023-05-23T07:04:31.714Z,3.20
2023-05-23T07:10:04.966Z,2.00
2023-05-23T07:15:33.530Z,1.97
2023-05-23T07:21:10.432Z,2.50
2023-05-23T07:26:38.635Z,2.37
2023-05-23T07:32:07.633Z,2.30
2023-05-23T07:37:35.652Z,4.70
2023-05-23T07:43:04.363Z,3.90
2023-05-23T07:48:32.548Z,2.77
2023-05-23T07:54:01.414Z,2.37
2023-05-23T07:59:30.364Z,1.73
2023-05-23T08:04:59.872Z,2.80
2023-05-23T08:10:29.688Z,3.57
2023-05-23T08:16:05.000Z,1.90
2023-05-23T08:21:35.100Z,3.40
2023-05-23T08:27:03.776Z,4.33
2023-05-23T08:32:33.134Z,2.03
2023-05-23T08:38:06.004Z,2.50
2023-05-23T08:43:34.913Z,4.83
2023-05-23T08:49:03.599Z,3.87
2023-05-23T08:54:34.601Z,1.83
2023-05-23T09:00:06.411Z,1.50
2023-05-23T09:05:34.996Z,4.00
2023-05-23T09:11:05.307Z,2.30
2023-05-23T09:16:37.622Z,2.33
2023-05-23T09:22:12.232Z,2.27
2023-05-23T09:27:54.636Z,2.97
2023-05-23T09:33:22.962Z,2.43
2023-05-23T09:38:52.725Z,2.60
2023-05-23T09:44:24.350Z,4.00
2023-05-23T09:49:52.725Z,4.80
2023-05-23T09:55:22.098Z,3.83
2023-05-23T10:00:56.693Z,3.37
2023-05-23T10:06:26.937Z,3.03
2023-05-23T10:12:25.618Z,3.40
2023-05-23T10:18:09.848Z,2.83
2023-05-23T10:23:39.600Z,3.27
2023-05-23T10:29:07.782Z,4.23
2023-05-23T10:34:41.535Z,2.60
2023-05-23T10:40:45.117Z,4.67
2023-05-23T10:46:16.152Z,4.27
2023-05-23T10:51:44.602Z,3.13
2023-05-23T10:57:17.018Z,3.10
2023-05-23T11:02:58.219Z,4.47
2023-05-23T11:08:35.383Z,3.60
2023-05-23T11:14:11.306Z,2.17
2023-05-23T11:20:05.995Z,2.10
2023-05-23T11:25:45.760Z,2.50
2023-05-23T11:31:14.026Z,2.80
2023-05-23T11:36:42.290Z,2.57
2023-05-23T11:42:10.456Z,3.53
2023-05-23T11:47:41.961Z,2.60
2023-05-23T11:53:09.871Z,2.47
2023-05-23T11:58:39.581Z,2.00
2023-05-23T12:04:13.001Z,3.07
2023-05-23T12:09:45.026Z,1.70
2023-05-23T12:15:13.648Z,3.07
2023-05-23T12:20:42.471Z,2.10
2023-05-23T12:26:10.892Z,2.83
2023-05-23T12:31:39.092Z,3.47
2023-05-23T12:37:18.685Z,2.30
2023-05-23T12:42:56.615Z,1.83
2023-05-23T12:48:24.476Z,2.40
2023-05-23T12:53:52.708Z,2.37
2023-05-23T12:59:20.915Z,2.53
2023-05-23T13:04:48.920Z,2.40
2023-05-23T13:10:16.870Z,5.00
2023-05-23T13:15:45.471Z,2.07
2023-05-23T13:21:14.696Z,2.23
2023-05-23T13:26:42.598Z,3.97
2023-05-23T13:32:11.021Z,2.17
2023-05-23T13:37:39.170Z,2.90
2023-05-23T13:43:07.243Z,2.20
2023-05-23T13:48:35.181Z,2.37
2023-05-23T13:54:04.248Z,4.20
2023-05-23T13:59:32.546Z,2.23
2023-05-23T14:05:00.320Z,2.10
2023-05-23T14:10:29.562Z,2.20
2023-05-23T14:15:57.393Z,1.63
2023-05-23T14:21:25.211Z,2.30
2023-05-23T14:26:53.485Z,1.73
2023-05-23T14:32:22.968Z,1.77
2023-05-23T14:37:51.684Z,1.17
2023-05-23T14:43:19.740Z,3.67
2023-05-23T14:48:47.851Z,2.00
2023-05-23T14:54:16.033Z,1.97
2023-05-23T14:59:43.994Z,2.13
2023-05-23T15:05:12.745Z,1.27
2023-05-23T15:10:43.576Z,1.00
2023-05-23T15:16:11.722Z,1.53
2023-05-23T15:21:42.247Z,0.87
2023-05-23T15:27:20.694Z,1.57
2023-05-23T15:32:49.370Z,1.40
2023-05-23T15:38:19.869Z,1.07
2023-05-23T15:43:48.979Z,1.63
2023-05-23T15:49:25.970Z,1.63
2023-05-23T15:54:54.980Z,2.57
2023-05-23T16:00:22.956Z,2.00
2023-05-23T16:05:50.932Z,1.93
2023-05-23T16:11:18.841Z,1.33
2023-05-23T16:16:46.752Z,1.50
2023-05-23T16:22:15.081Z,1.43
2023-05-23T16:27:42.807Z,2.03
2023-05-23T16:33:11.073Z,1.17
2023-05-23T16:38:39.000Z,2.47
2023-05-23T16:44:06.992Z,1.70
2023-05-23T16:49:35.079Z,1.73
2023-05-23T16:55:04.517Z,0.83
2023-05-23T17:00:32.436Z,1.27
2023-05-23T17:06:00.542Z,1.63
2023-05-23T17:11:28.427Z,1.10
2023-05-23T17:16:56.330Z,0.80
2023-05-23T17:22:24.257Z,0.87
2023-05-23T17:27:52.321Z,0.70
2023-05-23T17:33:20.285Z,0.70
2023-05-23T17:38:48.140Z,0.70
2023-05-23T17:44:19.681Z,1.17
2023-05-23T17:49:47.598Z,1.30
2023-05-23T17:55:15.599Z,0.60
2023-05-23T18:00:43.745Z,1.47
2023-05-23T18:06:12.322Z,0.70
2023-05-23T18:11:40.933Z,0.73
2023-05-23T18:17:10.052Z,0.67
2023-05-23T18:22:38.192Z,1.20
2023-05-23T18:28:06.281Z,0.60
2023-05-23T18:33:34.420Z,0.83
2023-05-23T18:39:04.574Z,0.90
2023-05-23T18:44:32.670Z,1.33
2023-05-23T18:50:01.582Z,0.80
2023-05-23T18:55:30.105Z,0.87
2023-05-23T19:01:03.692Z,1.17
2023-05-23T19:06:31.980Z,0.70
2023-05-23T19:12:01.112Z,0.60
2023-05-23T19:17:29.436Z,0.60
2023-05-23T19:22:57.435Z,1.53
2023-05-23T19:28:25.468Z,0.67
2023-05-23T19:33:53.579Z,1.00
2023-05-23T19:39:22.531Z,0.60
2023-05-23T19:44:51.189Z,3.20
2023-05-23T19:50:19.698Z,1.17
2023-05-23T19:55:49.418Z,0.80
2023-05-23T20:01:17.907Z,0.80
2023-05-23T20:06:46.558Z,0.70
2023-05-23T20:12:15.530Z,0.70
2023-05-23T20:17:43.944Z,0.60
2023-05-23T20:23:12.308Z,0.53
2023-05-23T20:28:45.432Z,0.67
2023-05-23T20:34:16.684Z,0.97
2023-05-23T20:39:44.795Z,1.03
2023-05-23T20:45:38.584Z,0.73
2023-05-23T20:51:07.649Z,0.80
2023-05-23T20:56:36.474Z,1.00
2023-05-23T21:02:06.260Z,1.43
2023-05-23T21:07:36.498Z,0.63
2023-05-23T21:13:04.765Z,1.20
2023-05-23T21:18:36.959Z,0.70
2023-05-23T21:24:06.488Z,0.63
2023-05-23T21:29:35.423Z,1.10
2023-05-23T21:35:04.092Z,0.80
2023-05-23T21:40:33.740Z,1.20
2023-05-23T21:46:01.609Z,1.23
2023-05-23T21:51:29.720Z,0.80
2023-05-23T21:56:57.653Z,1.00
2023-05-23T22:02:25.765Z,0.73
2023-05-23T22:07:53.784Z,0.70
2023-05-23T22:13:22.100Z,1.30
2023-05-23T22:18:52.195Z,0.60
2023-05-23T22:24:20.268Z,0.87
2023-05-23T22:29:48.357Z,1.47
2023-05-23T22:35:16.597Z,0.83
2023-05-23T22:40:44.381Z,0.50
2023-05-23T22:46:12.776Z,0.60
2023-05-23T22:51:40.763Z,0.50
2023-05-23T22:57:08.839Z,0.60
2023-05-23T23:02:36.973Z,0.60
2023-05-23T23:08:05.984Z,1.13
2023-05-23T23:13:33.926Z,0.60
2023-05-23T23:19:02.831Z,0.50
2023-05-23T23:24:31.059Z,0.80
2023-05-23T23:29:59.394Z,0.50
2023-05-23T23:35:27.588Z,1.23
2023-05-23T23:40:55.780Z,0.50
2023-05-23T23:46:23.902Z,0.47
2023-05-23T23:51:52.578Z,1.00
2023-05-23T23:57:20.699Z,1.67
